2021/10/22 08:20 EDDH 220820Z 23016G27KT 9999 VCSH BKN018 08/06 Q1002 TEMPO 27020G45KT 4500 SHRA BKN014CB